sensor_id;sensor_type;location;lat;lon;timestamp;P1;durP1;ratioP1;P2;durP2;ratioP2
26512;SDS011;14186;53.822;10.152;2022-07-06T00:03:54;4.40;;;1.58;;
26512;SDS011;14186;53.822;10.152;2022-07-06T00:08:57;3.55;;;1.42;;
26512;SDS011;14186;53.822;10.152;2022-07-06T00:13:57;4.90;;;1.50;;
26512;SDS011;14186;53.822;10.152;2022-07-06T00:18:59;5.38;;;1.42;;
26512;SDS011;14186;53.822;10.152;2022-07-06T00:23:59;4.85;;;1.65;;
26512;SDS011;14186;53.822;10.152;2022-07-06T00:28:59;6.30;;;1.58;;
26512;SDS011;14186;53.822;10.152;2022-07-06T00:34:02;7.68;;;1.70;;
26512;SDS011;14186;53.822;10.152;2022-07-06T00:39:02;6.05;;;1.77;;
26512;SDS011;14186;53.822;10.152;2022-07-06T00:44:06;6.45;;;1.70;;
26512;SDS011;14186;53.822;10.152;2022-07-06T00:49:09;5.13;;;1.50;;
26512;SDS011;14186;53.822;10.152;2022-07-06T00:54:09;4.15;;;1.30;;
26512;SDS011;14186;53.822;10.152;2022-07-06T00:59:10;10.80;;;2.95;;
26512;SDS011;14186;53.822;10.152;2022-07-06T01:04:11;10.23;;;1.40;;
26512;SDS011;14186;53.822;10.152;2022-07-06T01:09:12;5.38;;;1.60;;
26512;SDS011;14186;53.822;10.152;2022-07-06T01:14:12;10.45;;;1.83;;
26512;SDS011;14186;53.822;10.152;2022-07-06T01:19:21;7.50;;;1.85;;
26512;SDS011;14186;53.822;10.152;2022-07-06T01:24:24;6.80;;;1.48;;
26512;SDS011;14186;53.822;10.152;2022-07-06T01:29:24;5.40;;;1.60;;
26512;SDS011;14186;53.822;10.152;2022-07-06T01:34:30;5.82;;;1.70;;
26512;SDS011;14186;53.822;10.152;2022-07-06T01:39:32;7.38;;;2.33;;
26512;SDS011;14186;53.822;10.152;2022-07-06T01:44:32;7.15;;;1.58;;
26512;SDS011;14186;53.822;10.152;2022-07-06T01:49:34;7.43;;;2.35;;
26512;SDS011;14186;53.822;10.152;2022-07-06T01:54:35;4.35;;;1.75;;
26512;SDS011;14186;53.822;10.152;2022-07-06T01:59:36;4.60;;;1.50;;
26512;SDS011;14186;53.822;10.152;2022-07-06T02:04:37;4.67;;;1.80;;
26512;SDS011;14186;53.822;10.152;2022-07-06T02:09:38;7.15;;;1.52;;
26512;SDS011;14186;53.822;10.152;2022-07-06T02:14:39;3.47;;;1.20;;
26512;SDS011;14186;53.822;10.152;2022-07-06T02:19:39;6.55;;;1.42;;
26512;SDS011;14186;53.822;10.152;2022-07-06T02:24:40;3.72;;;1.33;;
26512;SDS011;14186;53.822;10.152;2022-07-06T02:29:41;6.70;;;1.48;;
26512;SDS011;14186;53.822;10.152;2022-07-06T02:34:41;2.85;;;1.20;;
26512;SDS011;14186;53.822;10.152;2022-07-06T02:39:42;7.38;;;1.15;;
26512;SDS011;14186;53.822;10.152;2022-07-06T02:44:44;6.38;;;1.33;;
26512;SDS011;14186;53.822;10.152;2022-07-06T02:54:50;3.40;;;0.70;;
26512;SDS011;14186;53.822;10.152;2022-07-06T02:59:52;5.60;;;0.90;;
26512;SDS011;14186;53.822;10.152;2022-07-06T03:04:52;4.05;;;0.73;;
26512;SDS011;14186;53.822;10.152;2022-07-06T03:09:54;1.95;;;0.52;;
26512;SDS011;14186;53.822;10.152;2022-07-06T03:14:54;2.88;;;0.77;;
26512;SDS011;14186;53.822;10.152;2022-07-06T03:19:54;3.85;;;0.65;;
26512;SDS011;14186;53.822;10.152;2022-07-06T03:24:56;3.40;;;0.70;;
26512;SDS011;14186;53.822;10.152;2022-07-06T03:29:56;2.35;;;0.68;;
26512;SDS011;14186;53.822;10.152;2022-07-06T03:34:56;3.63;;;0.90;;
26512;SDS011;14186;53.822;10.152;2022-07-06T03:39:57;2.28;;;0.80;;
26512;SDS011;14186;53.822;10.152;2022-07-06T03:44:58;3.92;;;1.20;;
26512;SDS011;14186;53.822;10.152;2022-07-06T03:49:58;3.42;;;0.88;;
26512;SDS011;14186;53.822;10.152;2022-07-06T03:55:00;4.82;;;0.70;;
26512;SDS011;14186;53.822;10.152;2022-07-06T04:00:00;5.00;;;0.63;;
26512;SDS011;14186;53.822;10.152;2022-07-06T04:05:00;3.90;;;0.80;;
26512;SDS011;14186;53.822;10.152;2022-07-06T04:10:02;3.35;;;1.02;;
26512;SDS011;14186;53.822;10.152;2022-07-06T04:15:02;3.33;;;1.08;;
26512;SDS011;14186;53.822;10.152;2022-07-06T04:20:04;4.72;;;0.70;;
26512;SDS011;14186;53.822;10.152;2022-07-06T04:25:06;2.42;;;0.90;;
26512;SDS011;14186;53.822;10.152;2022-07-06T04:30:10;2.53;;;0.75;;
26512;SDS011;14186;53.822;10.152;2022-07-06T04:35:10;3.33;;;0.93;;
26512;SDS011;14186;53.822;10.152;2022-07-06T04:40:12;2.83;;;0.70;;
26512;SDS011;14186;53.822;10.152;2022-07-06T04:45:12;5.95;;;1.67;;
26512;SDS011;14186;53.822;10.152;2022-07-06T04:50:13;2.53;;;1.13;;
26512;SDS011;14186;53.822;10.152;2022-07-06T04:55:14;7.10;;;1.10;;
26512;SDS011;14186;53.822;10.152;2022-07-06T05:00:15;4.00;;;1.00;;
26512;SDS011;14186;53.822;10.152;2022-07-06T05:05:15;4.93;;;1.60;;
26512;SDS011;14186;53.822;10.152;2022-07-06T05:10:17;6.03;;;1.42;;
26512;SDS011;14186;53.822;10.152;2022-07-06T05:15:17;1.48;;;0.68;;
26512;SDS011;14186;53.822;10.152;2022-07-06T05:20:17;5.25;;;1.77;;
26512;SDS011;14186;53.822;10.152;2022-07-06T05:25:19;6.47;;;1.00;;
26512;SDS011;14186;53.822;10.152;2022-07-06T05:30:20;3.63;;;0.95;;
26512;SDS011;14186;53.822;10.152;2022-07-06T05:35:20;4.63;;;0.95;;
26512;SDS011;14186;53.822;10.152;2022-07-06T05:40:22;7.00;;;1.33;;
26512;SDS011;14186;53.822;10.152;2022-07-06T05:45:22;5.22;;;1.35;;
26512;SDS011;14186;53.822;10.152;2022-07-06T05:50:22;5.70;;;1.80;;
26512;SDS011;14186;53.822;10.152;2022-07-06T05:55:24;4.85;;;1.38;;
26512;SDS011;14186;53.822;10.152;2022-07-06T06:00:25;9.82;;;1.40;;
26512;SDS011;14186;53.822;10.152;2022-07-06T06:05:26;6.10;;;1.00;;
26512;SDS011;14186;53.822;10.152;2022-07-06T06:10:27;3.55;;;0.70;;
26512;SDS011;14186;53.822;10.152;2022-07-06T06:15:27;6.68;;;1.58;;
26512;SDS011;14186;53.822;10.152;2022-07-06T06:20:28;1.70;;;0.50;;
26512;SDS011;14186;53.822;10.152;2022-07-06T06:25:31;4.32;;;0.80;;
26512;SDS011;14186;53.822;10.152;2022-07-06T06:30:31;4.78;;;0.70;;
26512;SDS011;14186;53.822;10.152;2022-07-06T06:35:32;7.57;;;1.23;;
26512;SDS011;14186;53.822;10.152;2022-07-06T06:40:33;4.13;;;0.60;;
26512;SDS011;14186;53.822;10.152;2022-07-06T06:45:34;3.13;;;0.60;;
26512;SDS011;14186;53.822;10.152;2022-07-06T06:50:34;4.50;;;0.70;;
26512;SDS011;14186;53.822;10.152;2022-07-06T06:55:35;5.03;;;0.90;;
26512;SDS011;14186;53.822;10.152;2022-07-06T07:00:36;5.97;;;0.50;;
26512;SDS011;14186;53.822;10.152;2022-07-06T07:05:36;2.80;;;0.50;;
26512;SDS011;14186;53.822;10.152;2022-07-06T07:10:37;3.28;;;0.68;;
26512;SDS011;14186;53.822;10.152;2022-07-06T07:15:38;4.15;;;0.63;;
26512;SDS011;14186;53.822;10.152;2022-07-06T07:20:38;3.95;;;0.80;;
26512;SDS011;14186;53.822;10.152;2022-07-06T07:25:39;2.22;;;0.47;;
26512;SDS011;14186;53.822;10.152;2022-07-06T07:30:40;7.70;;;0.65;;
26512;SDS011;14186;53.822;10.152;2022-07-06T07:35:40;4.57;;;0.50;;
26512;SDS011;14186;53.822;10.152;2022-07-06T07:40:41;3.25;;;0.50;;
26512;SDS011;14186;53.822;10.152;2022-07-06T07:45:42;2.90;;;0.60;;
26512;SDS011;14186;53.822;10.152;2022-07-06T07:50:42;1.27;;;0.40;;
26512;SDS011;14186;53.822;10.152;2022-07-06T07:55:44;1.67;;;0.38;;
26512;SDS011;14186;53.822;10.152;2022-07-06T08:00:44;2.33;;;0.40;;
26512;SDS011;14186;53.822;10.152;2022-07-06T08:05:44;1.67;;;0.52;;
26512;SDS011;14186;53.822;10.152;2022-07-06T08:10:46;2.95;;;0.40;;
26512;SDS011;14186;53.822;10.152;2022-07-06T08:15:46;1.33;;;0.38;;
26512;SDS011;14186;53.822;10.152;2022-07-06T08:20:46;4.90;;;0.70;;
26512;SDS011;14186;53.822;10.152;2022-07-06T08:25:48;4.38;;;0.50;;
26512;SDS011;14186;53.822;10.152;2022-07-06T08:30:48;2.47;;;0.98;;
26512;SDS011;14186;53.822;10.152;2022-07-06T08:35:48;2.00;;;0.60;;
26512;SDS011;14186;53.822;10.152;2022-07-06T08:40:50;1.35;;;0.50;;
26512;SDS011;14186;53.822;10.152;2022-07-06T08:45:50;2.47;;;0.50;;
26512;SDS011;14186;53.822;10.152;2022-07-06T08:50:53;4.90;;;0.88;;
26512;SDS011;14186;53.822;10.152;2022-07-06T08:55:55;3.40;;;0.52;;
26512;SDS011;14186;53.822;10.152;2022-07-06T09:00:57;4.80;;;0.60;;
26512;SDS011;14186;53.822;10.152;2022-07-06T09:05:58;3.30;;;0.47;;
26512;SDS011;14186;53.822;10.152;2022-07-06T09:11:00;6.05;;;0.70;;
26512;SDS011;14186;53.822;10.152;2022-07-06T09:16:08;1.90;;;1.60;;
26512;SDS011;14186;53.822;10.152;2022-07-06T09:21:24;2.17;;;0.50;;
26512;SDS011;14186;53.822;10.152;2022-07-06T09:26:24;4.45;;;0.40;;
26512;SDS011;14186;53.822;10.152;2022-07-06T09:31:24;1.90;;;0.40;;
26512;SDS011;14186;53.822;10.152;2022-07-06T09:36:39;2.38;;;0.50;;
26512;SDS011;14186;53.822;10.152;2022-07-06T09:41:39;3.92;;;0.50;;
26512;SDS011;14186;53.822;10.152;2022-07-06T09:46:41;3.10;;;0.77;;
26512;SDS011;14186;53.822;10.152;2022-07-06T09:51:43;4.95;;;0.63;;
26512;SDS011;14186;53.822;10.152;2022-07-06T09:56:44;2.22;;;0.30;;
26512;SDS011;14186;53.822;10.152;2022-07-06T10:01:45;2.47;;;0.32;;
26512;SDS011;14186;53.822;10.152;2022-07-06T10:06:47;2.20;;;0.50;;
26512;SDS011;14186;53.822;10.152;2022-07-06T10:11:48;1.95;;;0.30;;
26512;SDS011;14186;53.822;10.152;2022-07-06T10:16:50;2.63;;;0.40;;
26512;SDS011;14186;53.822;10.152;2022-07-06T10:21:51;1.80;;;0.40;;
26512;SDS011;14186;53.822;10.152;2022-07-06T10:26:52;1.63;;;0.50;;
26512;SDS011;14186;53.822;10.152;2022-07-06T10:31:52;4.18;;;0.77;;
26512;SDS011;14186;53.822;10.152;2022-07-06T10:36:55;2.47;;;0.50;;
26512;SDS011;14186;53.822;10.152;2022-07-06T10:41:55;3.75;;;0.47;;
26512;SDS011;14186;53.822;10.152;2022-07-06T10:46:57;1.88;;;0.50;;
26512;SDS011;14186;53.822;10.152;2022-07-06T10:51:59;4.72;;;1.17;;
26512;SDS011;14186;53.822;10.152;2022-07-06T10:56:59;2.38;;;0.40;;
26512;SDS011;14186;53.822;10.152;2022-07-06T11:02:12;3.80;;;0.40;;
26512;SDS011;14186;53.822;10.152;2022-07-06T11:07:14;4.90;;;0.50;;
26512;SDS011;14186;53.822;10.152;2022-07-06T11:12:15;2.38;;;0.80;;
26512;SDS011;14186;53.822;10.152;2022-07-06T11:17:16;3.63;;;0.52;;
26512;SDS011;14186;53.822;10.152;2022-07-06T11:22:18;1.23;;;0.50;;
26512;SDS011;14186;53.822;10.152;2022-07-06T11:27:18;7.20;;;0.50;;
26512;SDS011;14186;53.822;10.152;2022-07-06T11:32:23;4.35;;;1.08;;
26512;SDS011;14186;53.822;10.152;2022-07-06T11:42:24;3.78;;;0.60;;
26512;SDS011;14186;53.822;10.152;2022-07-06T11:47:29;1.63;;;0.30;;
26512;SDS011;14186;53.822;10.152;2022-07-06T11:52:30;3.22;;;0.70;;
26512;SDS011;14186;53.822;10.152;2022-07-06T11:57:32;2.37;;;0.50;;
26512;SDS011;14186;53.822;10.152;2022-07-06T12:02:32;2.22;;;0.30;;
26512;SDS011;14186;53.822;10.152;2022-07-06T12:07:32;3.58;;;0.52;;
26512;SDS011;14186;53.822;10.152;2022-07-06T12:12:34;1.30;;;0.30;;
26512;SDS011;14186;53.822;10.152;2022-07-06T12:17:34;4.45;;;0.50;;
26512;SDS011;14186;53.822;10.152;2022-07-06T12:22:34;4.60;;;0.40;;
26512;SDS011;14186;53.822;10.152;2022-07-06T12:27:36;4.60;;;0.30;;
26512;SDS011;14186;53.822;10.152;2022-07-06T12:32:36;3.38;;;0.40;;
26512;SDS011;14186;53.822;10.152;2022-07-06T12:37:37;1.83;;;0.20;;
26512;SDS011;14186;53.822;10.152;2022-07-06T12:42:46;2.50;;;0.50;;
26512;SDS011;14186;53.822;10.152;2022-07-06T12:47:56;1.23;;;0.30;;
26512;SDS011;14186;53.822;10.152;2022-07-06T12:52:56;1.52;;;0.20;;
26512;SDS011;14186;53.822;10.152;2022-07-06T12:57:58;3.15;;;0.60;;
26512;SDS011;14186;53.822;10.152;2022-07-06T13:02:58;2.67;;;0.30;;
26512;SDS011;14186;53.822;10.152;2022-07-06T13:07:58;2.35;;;0.30;;
26512;SDS011;14186;53.822;10.152;2022-07-06T13:13:00;3.25;;;0.52;;
26512;SDS011;14186;53.822;10.152;2022-07-06T13:18:00;3.45;;;0.40;;
26512;SDS011;14186;53.822;10.152;2022-07-06T13:23:00;1.63;;;0.40;;
26512;SDS011;14186;53.822;10.152;2022-07-06T13:28:02;3.13;;;0.40;;
26512;SDS011;14186;53.822;10.152;2022-07-06T13:33:02;3.05;;;0.43;;
26512;SDS011;14186;53.822;10.152;2022-07-06T13:38:03;2.85;;;0.60;;
26512;SDS011;14186;53.822;10.152;2022-07-06T13:43:05;2.55;;;0.25;;
26512;SDS011;14186;53.822;10.152;2022-07-06T13:48:07;4.05;;;0.50;;
26512;SDS011;14186;53.822;10.152;2022-07-06T13:53:07;2.63;;;0.50;;
26512;SDS011;14186;53.822;10.152;2022-07-06T13:58:11;4.47;;;0.40;;
26512;SDS011;14186;53.822;10.152;2022-07-06T14:03:11;3.47;;;0.40;;
26512;SDS011;14186;53.822;10.152;2022-07-06T14:08:12;2.60;;;0.30;;
26512;SDS011;14186;53.822;10.152;2022-07-06T14:13:13;2.05;;;0.32;;
26512;SDS011;14186;53.822;10.152;2022-07-06T14:18:14;3.60;;;0.80;;
26512;SDS011;14186;53.822;10.152;2022-07-06T14:23:14;2.60;;;0.30;;
26512;SDS011;14186;53.822;10.152;2022-07-06T14:28:16;2.22;;;0.22;;
26512;SDS011;14186;53.822;10.152;2022-07-06T14:33:16;1.92;;;0.40;;
26512;SDS011;14186;53.822;10.152;2022-07-06T14:38:17;3.80;;;0.47;;
26512;SDS011;14186;53.822;10.152;2022-07-06T14:43:19;3.08;;;0.50;;
26512;SDS011;14186;53.822;10.152;2022-07-06T14:48:21;1.85;;;0.40;;
26512;SDS011;14186;53.822;10.152;2022-07-06T14:53:21;0.75;;;0.40;;
26512;SDS011;14186;53.822;10.152;2022-07-06T14:58:23;3.40;;;0.30;;
26512;SDS011;14186;53.822;10.152;2022-07-06T15:03:23;4.18;;;0.40;;
26512;SDS011;14186;53.822;10.152;2022-07-06T15:08:24;2.30;;;0.30;;
26512;SDS011;14186;53.822;10.152;2022-07-06T15:13:26;1.85;;;0.30;;
26512;SDS011;14186;53.822;10.152;2022-07-06T15:18:26;5.03;;;0.55;;
26512;SDS011;14186;53.822;10.152;2022-07-06T15:23:27;1.95;;;0.45;;
26512;SDS011;14186;53.822;10.152;2022-07-06T15:28:28;1.08;;;0.30;;
26512;SDS011;14186;53.822;10.152;2022-07-06T15:33:30;2.28;;;0.70;;
26512;SDS011;14186;53.822;10.152;2022-07-06T15:38:30;3.13;;;0.40;;
26512;SDS011;14186;53.822;10.152;2022-07-06T15:43:32;2.05;;;0.52;;
26512;SDS011;14186;53.822;10.152;2022-07-06T15:48:32;1.75;;;0.35;;
26512;SDS011;14186;53.822;10.152;2022-07-06T15:53:32;2.33;;;0.47;;
26512;SDS011;14186;53.822;10.152;2022-07-06T15:58:34;3.88;;;0.80;;
26512;SDS011;14186;53.822;10.152;2022-07-06T16:03:34;5.28;;;0.75;;
26512;SDS011;14186;53.822;10.152;2022-07-06T16:08:36;5.00;;;0.63;;
26512;SDS011;14186;53.822;10.152;2022-07-06T16:13:37;4.78;;;0.80;;
26512;SDS011;14186;53.822;10.152;2022-07-06T16:18:38;4.03;;;0.75;;
26512;SDS011;14186;53.822;10.152;2022-07-06T16:23:38;5.80;;;0.57;;
26512;SDS011;14186;53.822;10.152;2022-07-06T16:28:40;4.80;;;0.60;;
26512;SDS011;14186;53.822;10.152;2022-07-06T16:33:40;4.65;;;0.60;;
26512;SDS011;14186;53.822;10.152;2022-07-06T16:38:40;4.82;;;0.80;;
26512;SDS011;14186;53.822;10.152;2022-07-06T16:43:42;4.28;;;0.88;;
26512;SDS011;14186;53.822;10.152;2022-07-06T16:48:49;3.05;;;0.77;;
26512;SDS011;14186;53.822;10.152;2022-07-06T16:53:49;3.72;;;0.63;;
26512;SDS011;14186;53.822;10.152;2022-07-06T16:58:50;2.35;;;0.30;;
26512;SDS011;14186;53.822;10.152;2022-07-06T17:03:52;7.00;;;0.70;;
26512;SDS011;14186;53.822;10.152;2022-07-06T17:08:52;3.88;;;0.70;;
26512;SDS011;14186;53.822;10.152;2022-07-06T17:13:54;5.35;;;1.40;;
26512;SDS011;14186;53.822;10.152;2022-07-06T17:18:55;3.20;;;1.52;;
26512;SDS011;14186;53.822;10.152;2022-07-06T17:23:55;3.38;;;0.63;;
26512;SDS011;14186;53.822;10.152;2022-07-06T17:28:57;3.50;;;0.73;;
26512;SDS011;14186;53.822;10.152;2022-07-06T17:33:58;2.60;;;0.60;;
26512;SDS011;14186;53.822;10.152;2022-07-06T17:38:58;2.92;;;0.63;;
26512;SDS011;14186;53.822;10.152;2022-07-06T17:44:01;4.35;;;1.00;;
26512;SDS011;14186;53.822;10.152;2022-07-06T17:49:01;3.97;;;1.42;;
26512;SDS011;14186;53.822;10.152;2022-07-06T17:54:02;3.92;;;0.65;;
26512;SDS011;14186;53.822;10.152;2022-07-06T17:59:04;3.60;;;0.70;;
26512;SDS011;14186;53.822;10.152;2022-07-06T18:04:05;5.13;;;0.77;;
26512;SDS011;14186;53.822;10.152;2022-07-06T18:09:05;2.75;;;0.57;;
26512;SDS011;14186;53.822;10.152;2022-07-06T18:14:07;4.90;;;0.80;;
26512;SDS011;14186;53.822;10.152;2022-07-06T18:19:07;3.95;;;0.80;;
26512;SDS011;14186;53.822;10.152;2022-07-06T18:24:08;5.55;;;0.90;;
26512;SDS011;14186;53.822;10.152;2022-07-06T18:29:09;6.15;;;0.88;;
26512;SDS011;14186;53.822;10.152;2022-07-06T18:34:10;4.72;;;0.90;;
26512;SDS011;14186;53.822;10.152;2022-07-06T18:39:11;6.50;;;0.80;;
26512;SDS011;14186;53.822;10.152;2022-07-06T18:44:14;7.72;;;1.42;;
26512;SDS011;14186;53.822;10.152;2022-07-06T18:49:14;4.30;;;1.05;;
26512;SDS011;14186;53.822;10.152;2022-07-06T18:54:14;5.20;;;0.82;;
26512;SDS011;14186;53.822;10.152;2022-07-06T18:59:17;3.20;;;0.90;;
26512;SDS011;14186;53.822;10.152;2022-07-06T19:04:17;5.50;;;1.20;;
26512;SDS011;14186;53.822;10.152;2022-07-06T19:09:18;3.80;;;0.82;;
26512;SDS011;14186;53.822;10.152;2022-07-06T19:14:20;3.05;;;1.00;;
26512;SDS011;14186;53.822;10.152;2022-07-06T19:24:25;2.30;;;0.82;;
26512;SDS011;14186;53.822;10.152;2022-07-06T19:29:28;5.55;;;1.02;;
26512;SDS011;14186;53.822;10.152;2022-07-06T19:34:28;8.00;;;1.75;;
26512;SDS011;14186;53.822;10.152;2022-07-06T19:39:29;4.22;;;1.15;;
26512;SDS011;14186;53.822;10.152;2022-07-06T19:44:30;3.20;;;1.00;;
26512;SDS011;14186;53.822;10.152;2022-07-06T19:49:31;3.35;;;1.05;;
26512;SDS011;14186;53.822;10.152;2022-07-06T19:54:31;5.40;;;1.40;;
26512;SDS011;14186;53.822;10.152;2022-07-06T19:59:33;4.88;;;1.25;;
26512;SDS011;14186;53.822;10.152;2022-07-06T20:04:33;5.10;;;1.70;;
26512;SDS011;14186;53.822;10.152;2022-07-06T20:09:33;8.30;;;2.00;;
26512;SDS011;14186;53.822;10.152;2022-07-06T20:14:36;3.25;;;1.77;;
26512;SDS011;14186;53.822;10.152;2022-07-06T20:19:36;3.55;;;1.60;;
26512;SDS011;14186;53.822;10.152;2022-07-06T20:24:37;4.33;;;1.77;;
26512;SDS011;14186;53.822;10.152;2022-07-06T20:29:38;3.55;;;1.52;;
26512;SDS011;14186;53.822;10.152;2022-07-06T20:34:39;4.80;;;1.65;;
26512;SDS011;14186;53.822;10.152;2022-07-06T20:39:40;6.63;;;2.10;;
26512;SDS011;14186;53.822;10.152;2022-07-06T20:44:41;5.85;;;1.92;;
26512;SDS011;14186;53.822;10.152;2022-07-06T20:49:43;4.45;;;1.90;;
26512;SDS011;14186;53.822;10.152;2022-07-06T20:54:43;3.15;;;1.70;;
26512;SDS011;14186;53.822;10.152;2022-07-06T20:59:45;4.05;;;2.03;;
26512;SDS011;14186;53.822;10.152;2022-07-06T21:04:45;6.47;;;1.90;;
26512;SDS011;14186;53.822;10.152;2022-07-06T21:09:45;6.07;;;1.58;;
26512;SDS011;14186;53.822;10.152;2022-07-06T21:14:47;4.57;;;1.83;;
26512;SDS011;14186;53.822;10.152;2022-07-06T21:19:47;4.75;;;1.67;;
26512;SDS011;14186;53.822;10.152;2022-07-06T21:24:47;3.25;;;1.73;;
26512;SDS011;14186;53.822;10.152;2022-07-06T21:29:49;3.78;;;1.75;;
26512;SDS011;14186;53.822;10.152;2022-07-06T21:34:49;6.65;;;1.83;;
26512;SDS011;14186;53.822;10.152;2022-07-06T21:39:49;4.93;;;1.80;;
26512;SDS011;14186;53.822;10.152;2022-07-06T21:44:51;5.97;;;2.08;;
26512;SDS011;14186;53.822;10.152;2022-07-06T21:49:52;5.90;;;1.95;;
26512;SDS011;14186;53.822;10.152;2022-07-06T21:54:52;4.82;;;2.10;;
26512;SDS011;14186;53.822;10.152;2022-07-06T21:59:54;6.82;;;3.55;;
26512;SDS011;14186;53.822;10.152;2022-07-06T22:04:55;4.22;;;2.22;;
26512;SDS011;14186;53.822;10.152;2022-07-06T22:09:56;8.13;;;3.03;;
26512;SDS011;14186;53.822;10.152;2022-07-06T22:14:58;5.72;;;2.83;;
26512;SDS011;14186;53.822;10.152;2022-07-06T22:19:59;4.05;;;2.47;;
26512;SDS011;14186;53.822;10.152;2022-07-06T22:24:59;5.78;;;3.85;;
26512;SDS011;14186;53.822;10.152;2022-07-06T22:30:01;7.80;;;4.03;;
26512;SDS011;14186;53.822;10.152;2022-07-06T22:35:01;6.72;;;3.80;;
26512;SDS011;14186;53.822;10.152;2022-07-06T22:40:02;8.27;;;3.50;;
26512;SDS011;14186;53.822;10.152;2022-07-06T22:45:04;6.18;;;3.60;;
26512;SDS011;14186;53.822;10.152;2022-07-06T22:55:08;7.63;;;4.70;;
26512;SDS011;14186;53.822;10.152;2022-07-06T23:00:10;6.18;;;4.22;;
26512;SDS011;14186;53.822;10.152;2022-07-06T23:05:11;9.43;;;4.75;;
26512;SDS011;14186;53.822;10.152;2022-07-06T23:10:12;8.02;;;5.43;;
26512;SDS011;14186;53.822;10.152;2022-07-06T23:15:14;6.93;;;4.90;;
26512;SDS011;14186;53.822;10.152;2022-07-06T23:20:14;5.15;;;4.03;;
26512;SDS011;14186;53.822;10.152;2022-07-06T23:25:14;4.75;;;3.75;;
26512;SDS011;14186;53.822;10.152;2022-07-06T23:30:16;6.38;;;4.50;;
26512;SDS011;14186;53.822;10.152;2022-07-06T23:35:16;6.10;;;3.92;;
26512;SDS011;14186;53.822;10.152;2022-07-06T23:40:17;4.10;;;3.05;;
26512;SDS011;14186;53.822;10.152;2022-07-06T23:45:19;4.05;;;2.85;;
26512;SDS011;14186;53.822;10.152;2022-07-06T23:50:19;5.68;;;3.67;;
26512;SDS011;14186;53.822;10.152;2022-07-06T23:55:20;4.97;;;3.23;;
